Time;durP1;ratioP1;P1;durP2;ratioP2;P2;SDS_P1;SDS_P2;PMS_P1;PMS_P2;Temp;Humidity;BMP_temperature;BMP_pressure;BME280_temperature;BME280_humidity;BME280_pressure;Samples;Min_cycle;Max_cycle;Signal;HPM_P1;HPM_P2
2021/11/15 00:01:29;;;;;;;6.10;4.82;;;;;;;;;;5110895;28;20473;-82
2021/11/15 00:03:56;;;;;;;5.07;4.40;;;;;;;;;;5109937;28;20770;-83
2021/11/15 00:06:23;;;;;;;5.60;4.35;;;;;;;;;;5115665;28;20414;-83
2021/11/15 00:08:50;;;;;;;4.82;4.00;;;;;;;;;;5114112;27;20402;-83
2021/11/15 00:11:19;;;;;;;5.50;4.10;;;;;;;;;;5113089;28;20398;-82
2021/11/15 00:13:46;;;;;;;4.80;4.30;;;;;;;;;;5111960;28;20883;-82
2021/11/15 00:16:13;;;;;;;6.45;4.38;;;;;;;;;;5118253;28;20399;-83
2021/11/15 00:18:40;;;;;;;4.97;4.38;;;;;;;;;;5112391;28;20817;-83
2021/11/15 00:21:07;;;;;;;5.13;4.50;;;;;;;;;;5117805;28;20399;-82
2021/11/15 00:23:33;;;;;;;4.78;4.28;;;;;;;;;;5115913;28;20398;-81
2021/11/15 00:26:00;;;;;;;5.93;4.30;;;;;;;;;;5111437;28;20406;-82
2021/11/15 00:28:28;;;;;;;5.03;4.50;;;;;;;;;;5105720;28;20758;-83
2021/11/15 00:30:55;;;;;;;5.20;4.70;;;;;;;;;;5107693;28;20402;-82
2021/11/15 00:33:22;;;;;;;5.32;4.53;;;;;;;;;;5107192;28;20403;-83
2021/11/15 00:35:49;;;;;;;5.32;4.78;;;;;;;;;;5107657;28;20401;-83
2021/11/15 00:38:16;;;;;;;4.93;4.32;;;;;;;;;;5107707;28;20977;-82
2021/11/15 00:40:43;;;;;;;4.80;4.30;;;;;;;;;;5107149;28;20406;-82
2021/11/15 00:43:09;;;;;;;5.85;4.72;;;;;;;;;;5106975;28;20805;-82
2021/11/15 00:45:38;;;;;;;6.15;4.35;;;;;;;;;;5107144;28;20422;-83
2021/11/15 00:48:06;;;;;;;4.90;4.32;;;;;;;;;;5106992;28;20395;-82
2021/11/15 00:50:34;;;;;;;5.50;4.35;;;;;;;;;;5106937;28;20407;-82
2021/11/15 00:53:01;;;;;;;5.57;4.55;;;;;;;;;;5103373;28;20413;-83
2021/11/15 00:55:28;;;;;;;4.68;4.18;;;;;;;;;;5103448;28;20397;-83
2021/11/15 00:57:56;;;;;;;5.20;4.40;;;;;;;;;;5106976;28;20856;-82
2021/11/15 01:00:25;;;;;;;5.40;4.20;;;;;;;;;;5106942;28;20394;-82
2021/11/15 01:02:54;;;;;;;5.85;4.53;;;;;;;;;;5106154;28;20874;-83
2021/11/15 01:05:21;;;;;;;6.00;4.40;;;;;;;;;;5106425;28;21867;-82
2021/11/15 01:07:48;;;;;;;4.70;3.78;;;;;;;;;;5106618;28;20752;-83
2021/11/15 01:10:17;;;;;;;4.72;3.83;;;;;;;;;;5106755;28;20398;-83
2021/11/15 01:12:44;;;;;;;4.88;4.13;;;;;;;;;;5106304;28;20391;-82
2021/11/15 01:15:14;;;;;;;4.20;3.80;;;;;;;;;;5106981;28;20402;-83
2021/11/15 01:17:42;;;;;;;4.55;4.15;;;;;;;;;;5107189;28;20398;-82
2021/11/15 01:20:14;;;;;;;4.32;3.80;;;;;;;;;;5105325;28;20874;-82
2021/11/15 01:22:41;;;;;;;5.10;4.33;;;;;;;;;;5106708;28;20414;-82
2021/11/15 01:25:09;;;;;;;5.35;3.97;;;;;;;;;;5106224;28;20870;-82
2021/11/15 01:27:37;;;;;;;5.53;4.38;;;;;;;;;;5106863;28;20422;-82
2021/11/15 01:30:04;;;;;;;4.90;4.30;;;;;;;;;;5106186;28;20405;-82
2021/11/15 01:32:31;;;;;;;5.03;3.97;;;;;;;;;;5106657;28;20397;-83
2021/11/15 01:34:58;;;;;;;5.50;4.30;;;;;;;;;;5103199;28;20451;-82
2021/11/15 01:37:26;;;;;;;5.40;4.40;;;;;;;;;;5106332;28;20727;-82
2021/11/15 01:39:53;;;;;;;5.50;4.37;;;;;;;;;;5106059;28;20390;-82
2021/11/15 01:42:20;;;;;;;4.55;4.03;;;;;;;;;;5106048;28;20402;-81
2021/11/15 01:44:46;;;;;;;5.20;4.35;;;;;;;;;;5105962;28;20410;-82
2021/11/15 01:47:13;;;;;;;4.88;4.28;;;;;;;;;;5106236;28;20430;-81
2021/11/15 01:49:40;;;;;;;5.20;4.38;;;;;;;;;;5105558;28;20405;-82
2021/11/15 01:52:07;;;;;;;5.60;4.90;;;;;;;;;;5105570;28;20397;-82
2021/11/15 01:54:36;;;;;;;5.25;4.68;;;;;;;;;;5106452;28;20394;-82
2021/11/15 01:57:03;;;;;;;5.47;4.78;;;;;;;;;;5105803;28;20407;-81
2021/11/15 01:59:30;;;;;;;5.43;4.78;;;;;;;;;;5106027;28;20754;-82
2021/11/15 02:01:59;;;;;;;5.67;4.30;;;;;;;;;;5101991;28;21244;-82
2021/11/15 02:04:26;;;;;;;4.78;4.28;;;;;;;;;;5105528;28;20406;-82
2021/11/15 02:06:54;;;;;;;5.03;4.40;;;;;;;;;;5105578;28;20414;-82
2021/11/15 02:09:21;;;;;;;5.43;4.50;;;;;;;;;;5106400;28;20418;-83
2021/11/15 02:11:49;;;;;;;5.33;4.80;;;;;;;;;;5106122;28;20403;-82
2021/11/15 02:14:16;;;;;;;5.47;4.70;;;;;;;;;;5107381;28;20740;-81
2021/11/15 02:16:43;;;;;;;5.97;4.68;;;;;;;;;;5109735;28;20391;-82
2021/11/15 02:19:10;;;;;;;5.80;4.60;;;;;;;;;;5108245;28;20414;-82
2021/11/15 02:21:38;;;;;;;5.63;4.68;;;;;;;;;;5106005;28;20405;-82
2021/11/15 02:24:05;;;;;;;5.65;5.05;;;;;;;;;;5105436;28;20409;-82
2021/11/15 02:26:32;;;;;;;5.23;4.50;;;;;;;;;;5101211;28;20480;-82
2021/11/15 02:28:59;;;;;;;5.63;4.68;;;;;;;;;;5104945;28;20456;-82
2021/11/15 02:31:29;;;;;;;5.60;4.70;;;;;;;;;;5105597;28;20804;-82
2021/11/15 02:33:58;;;;;;;4.93;4.30;;;;;;;;;;5104507;28;20399;-83
2021/11/15 02:36:28;;;;;;;5.28;4.75;;;;;;;;;;5105640;28;20403;-82
2021/11/15 02:38:58;;;;;;;5.32;4.38;;;;;;;;;;5104870;28;20407;-82
2021/11/15 02:41:26;;;;;;;6.32;4.80;;;;;;;;;;5105928;28;20406;-82
2021/11/15 02:43:53;;;;;;;5.07;4.55;;;;;;;;;;5104214;28;20882;-82
2021/11/15 02:46:21;;;;;;;4.95;4.32;;;;;;;;;;5102526;28;20467;-82
2021/11/15 02:48:48;;;;;;;5.93;4.40;;;;;;;;;;5102410;28;20416;-82
2021/11/15 02:51:15;;;;;;;5.70;4.30;;;;;;;;;;5102988;28;20463;-82
2021/11/15 02:53:43;;;;;;;4.97;4.47;;;;;;;;;;5103082;28;20394;-82
2021/11/15 02:56:11;;;;;;;5.22;4.15;;;;;;;;;;5103564;28;20489;-80
2021/11/15 02:58:39;;;;;;;5.43;4.30;;;;;;;;;;5102337;28;20403;-82
2021/11/15 03:01:10;;;;;;;6.13;4.25;;;;;;;;;;5104247;28;20759;-82
2021/11/15 03:03:37;;;;;;;4.80;4.22;;;;;;;;;;5101774;28;20400;-81
2021/11/15 03:06:04;;;;;;;5.15;3.85;;;;;;;;;;5107595;28;20767;-82
2021/11/15 03:08:31;;;;;;;5.10;4.30;;;;;;;;;;5100874;28;20511;-82
2021/11/15 03:11:01;;;;;;;5.50;4.00;;;;;;;;;;5100730;28;20431;-82
2021/11/15 03:13:31;;;;;;;4.43;4.00;;;;;;;;;;5099571;28;20404;-83
2021/11/15 03:15:59;;;;;;;4.65;4.00;;;;;;;;;;5100793;28;20399;-82
2021/11/15 03:18:28;;;;;;;5.90;4.10;;;;;;;;;;5101498;28;20788;-82
2021/11/15 03:20:57;;;;;;;4.22;3.83;;;;;;;;;;5103497;28;20407;-82
2021/11/15 03:23:26;;;;;;;4.60;3.75;;;;;;;;;;5104421;28;20398;-81
2021/11/15 03:25:54;;;;;;;5.57;4.13;;;;;;;;;;5099282;28;20419;-82
2021/11/15 03:28:23;;;;;;;5.78;4.00;;;;;;;;;;5104606;28;20471;-82
2021/11/15 03:30:52;;;;;;;4.82;4.05;;;;;;;;;;5105815;28;20402;-82
2021/11/15 03:33:21;;;;;;;4.13;3.67;;;;;;;;;;5106299;28;20409;-80
2021/11/15 03:35:48;;;;;;;4.38;3.85;;;;;;;;;;5105469;28;20856;-82
2021/11/15 03:38:15;;;;;;;4.93;3.47;;;;;;;;;;5098574;28;20400;-83
2021/11/15 03:40:42;;;;;;;4.75;3.95;;;;;;;;;;5103433;28;20427;-82
2021/11/15 03:43:10;;;;;;;5.47;4.10;;;;;;;;;;5101660;28;20909;-83
2021/11/15 03:45:37;;;;;;;5.82;4.63;;;;;;;;;;5103638;28;20825;-82
2021/11/15 03:48:07;;;;;;;4.72;4.15;;;;;;;;;;5101147;28;20420;-82
2021/11/15 03:50:35;;;;;;;5.47;4.53;;;;;;;;;;5107514;28;20403;-82
2021/11/15 03:53:08;;;;;;;4.30;3.80;;;;;;;;;;5100481;28;20400;-82
2021/11/15 03:55:37;;;;;;;5.40;4.30;;;;;;;;;;5101412;28;20399;-82
2021/11/15 03:58:04;;;;;;;4.90;4.40;;;;;;;;;;5099576;28;20487;-82
2021/11/15 04:00:36;;;;;;;5.47;4.30;;;;;;;;;;5104260;28;20399;-82
2021/11/15 04:03:10;;;;;;;5.78;4.38;;;;;;;;;;5099081;28;20412;-83
2021/11/15 04:05:43;;;;;;;4.97;4.38;;;;;;;;;;5103340;28;20409;-82
2021/11/15 04:08:10;;;;;;;7.45;4.68;;;;;;;;;;5099469;28;20424;-82
2021/11/15 04:10:39;;;;;;;5.57;4.40;;;;;;;;;;5104087;28;20866;-82
2021/11/15 04:13:08;;;;;;;6.45;4.50;;;;;;;;;;5103031;28;20405;-82
2021/11/15 04:15:36;;;;;;;6.47;4.60;;;;;;;;;;5100799;28;20486;-82
2021/11/15 04:18:05;;;;;;;5.95;4.53;;;;;;;;;;5103282;28;21338;-82
2021/11/15 04:20:33;;;;;;;6.45;4.43;;;;;;;;;;5099677;28;21043;-82
2021/11/15 04:23:01;;;;;;;6.30;4.80;;;;;;;;;;5103572;28;20448;-82
2021/11/15 04:25:29;;;;;;;6.97;5.03;;;;;;;;;;5100986;28;20768;-82
2021/11/15 04:27:56;;;;;;;6.30;4.40;;;;;;;;;;5103367;28;20419;-82
2021/11/15 04:30:23;;;;;;;6.60;4.50;;;;;;;;;;5103575;28;20398;-83
2021/11/15 04:32:50;;;;;;;5.43;4.63;;;;;;;;;;5109324;27;20425;-82
2021/11/15 04:35:18;;;;;;;5.10;4.60;;;;;;;;;;5106895;28;20402;-82
2021/11/15 04:37:48;;;;;;;5.88;4.75;;;;;;;;;;5102790;28;20408;-82
2021/11/15 04:40:15;;;;;;;7.75;5.22;;;;;;;;;;5103335;28;20461;-82
2021/11/15 04:42:43;;;;;;;5.97;4.75;;;;;;;;;;5101019;28;20404;-82
2021/11/15 04:45:12;;;;;;;7.05;5.43;;;;;;;;;;5101939;28;20403;-82
2021/11/15 04:47:39;;;;;;;6.07;5.22;;;;;;;;;;5101888;28;20894;-82
2021/11/15 04:50:07;;;;;;;7.00;5.20;;;;;;;;;;5103375;28;20790;-82
2021/11/15 04:52:34;;;;;;;5.97;5.07;;;;;;;;;;5102756;28;20390;-82
2021/11/15 04:55:04;;;;;;;8.13;5.60;;;;;;;;;;5098930;28;20846;-83
2021/11/15 04:57:31;;;;;;;7.15;5.68;;;;;;;;;;5098920;28;20406;-82
2021/11/15 05:00:00;;;;;;;7.90;5.57;;;;;;;;;;5097680;28;20406;-82
2021/11/15 05:02:27;;;;;;;7.40;5.82;;;;;;;;;;5103526;27;20402;-82
2021/11/15 05:04:55;;;;;;;8.98;6.20;;;;;;;;;;5102244;28;20804;-82
2021/11/15 05:07:22;;;;;;;7.45;5.95;;;;;;;;;;5102994;28;20413;-82
2021/11/15 05:09:49;;;;;;;8.90;6.47;;;;;;;;;;5100374;28;20402;-82
2021/11/15 05:12:17;;;;;;;8.83;6.43;;;;;;;;;;5101333;28;20395;-82
2021/11/15 05:14:44;;;;;;;9.73;7.15;;;;;;;;;;5102187;27;20833;-82
2021/11/15 05:17:11;;;;;;;7.85;6.00;;;;;;;;;;5100722;28;20401;-82
2021/11/15 05:19:38;;;;;;;8.68;6.65;;;;;;;;;;5101422;28;20399;-81
2021/11/15 05:22:05;;;;;;;10.90;7.15;;;;;;;;;;5099213;28;20408;-82
2021/11/15 05:24:32;;;;;;;9.90;6.88;;;;;;;;;;5103182;28;20395;-82
2021/11/15 05:26:58;;;;;;;8.77;6.97;;;;;;;;;;5099048;28;20448;-81
2021/11/15 05:29:27;;;;;;;8.02;6.60;;;;;;;;;;5106030;27;20402;-81
2021/11/15 05:31:54;;;;;;;8.98;6.63;;;;;;;;;;5106494;28;20410;-82
2021/11/15 05:34:21;;;;;;;8.95;6.78;;;;;;;;;;5101890;28;20414;-83
2021/11/15 05:36:48;;;;;;;8.77;6.97;;;;;;;;;;5103972;28;20944;-83
2021/11/15 05:39:14;;;;;;;9.03;7.07;;;;;;;;;;5110946;28;20500;-83
2021/11/15 05:41:41;;;;;;;10.48;7.00;;;;;;;;;;5106387;28;20755;-82
2021/11/15 05:44:08;;;;;;;9.65;7.40;;;;;;;;;;5108604;27;21289;-82
2021/11/15 05:46:36;;;;;;;10.80;7.65;;;;;;;;;;5103073;28;20394;-83
2021/11/15 05:49:03;;;;;;;10.18;7.55;;;;;;;;;;5102863;28;20894;-83
2021/11/15 05:51:33;;;;;;;9.13;7.15;;;;;;;;;;5109132;27;20399;-83
2021/11/15 05:54:00;;;;;;;8.80;6.87;;;;;;;;;;5104050;28;20391;-83
2021/11/15 05:56:27;;;;;;;8.15;6.65;;;;;;;;;;5107218;27;20794;-83
2021/11/15 05:58:53;;;;;;;9.52;6.95;;;;;;;;;;5105514;28;20886;-83
2021/11/15 06:01:20;;;;;;;9.18;6.75;;;;;;;;;;5103662;28;20405;-83
2021/11/15 06:03:49;;;;;;;11.27;7.13;;;;;;;;;;5105077;28;20411;-83
2021/11/15 06:06:15;;;;;;;10.70;7.70;;;;;;;;;;5104211;28;20904;-83
2021/11/15 06:08:42;;;;;;;11.10;7.28;;;;;;;;;;5103714;28;20414;-83
2021/11/15 06:11:09;;;;;;;11.38;8.20;;;;;;;;;;5107012;27;20390;-83
2021/11/15 06:13:37;;;;;;;10.65;8.00;;;;;;;;;;5103424;28;20411;-83
2021/11/15 06:16:04;;;;;;;11.38;8.45;;;;;;;;;;5105544;28;20417;-83
2021/11/15 06:18:31;;;;;;;12.45;8.45;;;;;;;;;;5112285;27;20766;-83
2021/11/15 06:20:59;;;;;;;11.77;8.50;;;;;;;;;;5104938;27;20399;-83
2021/11/15 06:23:26;;;;;;;12.70;8.95;;;;;;;;;;5105746;27;20768;-84
2021/11/15 06:25:52;;;;;;;10.43;7.75;;;;;;;;;;5106769;27;20398;-83
2021/11/15 06:28:19;;;;;;;11.18;7.95;;;;;;;;;;5110930;27;20426;-83
2021/11/15 06:30:46;;;;;;;11.65;8.10;;;;;;;;;;5108803;27;20398;-83
2021/11/15 06:33:13;;;;;;;10.93;8.10;;;;;;;;;;5109862;27;20461;-83
2021/11/15 06:35:40;;;;;;;11.25;7.93;;;;;;;;;;5117033;27;20410;-83
2021/11/15 06:38:09;;;;;;;10.70;8.00;;;;;;;;;;5116254;27;20406;-83
2021/11/15 06:40:36;;;;;;;10.95;7.90;;;;;;;;;;5119198;27;20423;-83
2021/11/15 06:43:03;;;;;;;11.13;8.18;;;;;;;;;;5116550;27;20465;-80
2021/11/15 06:45:30;;;;;;;12.80;8.00;;;;;;;;;;5113859;27;20456;-83
2021/11/15 06:47:58;;;;;;;10.93;7.82;;;;;;;;;;5105472;27;20421;-84
2021/11/15 06:50:25;;;;;;;12.63;7.57;;;;;;;;;;5109911;27;20759;-83
2021/11/15 06:52:52;;;;;;;9.80;7.80;;;;;;;;;;5107182;28;20778;-83
2021/11/15 06:55:23;;;;;;;10.80;7.90;;;;;;;;;;5106412;28;20784;-83
2021/11/15 06:57:51;;;;;;;11.27;7.80;;;;;;;;;;5106485;28;20480;-83
2021/11/15 07:00:21;;;;;;;10.13;7.68;;;;;;;;;;5104612;28;20467;-82
2021/11/15 07:02:49;;;;;;;10.65;7.57;;;;;;;;;;5105055;28;20460;-83
2021/11/15 07:05:17;;;;;;;9.63;7.50;;;;;;;;;;5108990;28;20399;-83
2021/11/15 07:07:44;;;;;;;10.07;7.60;;;;;;;;;;5106746;28;20410;-83
2021/11/15 07:10:12;;;;;;;10.87;8.23;;;;;;;;;;5108189;28;20398;-83
2021/11/15 07:12:41;;;;;;;9.95;7.55;;;;;;;;;;5107291;28;20391;-84
2021/11/15 07:15:10;;;;;;;11.07;7.93;;;;;;;;;;5107912;28;20402;-83
2021/11/15 07:17:37;;;;;;;10.65;7.63;;;;;;;;;;5106703;28;20873;-84
2021/11/15 07:20:05;;;;;;;9.93;7.70;;;;;;;;;;5106052;28;20428;-83
2021/11/15 07:22:32;;;;;;;9.53;7.40;;;;;;;;;;5109032;28;20395;-84
2021/11/15 07:24:59;;;;;;;10.57;7.65;;;;;;;;;;5102967;28;20408;-84
2021/11/15 07:27:29;;;;;;;10.23;7.40;;;;;;;;;;5105580;28;20408;-84
2021/11/15 07:29:57;;;;;;;10.75;7.93;;;;;;;;;;5104093;28;20395;-84
2021/11/15 07:32:24;;;;;;;12.47;8.70;;;;;;;;;;5105157;28;20507;-84
2021/11/15 07:34:52;;;;;;;10.05;8.13;;;;;;;;;;5107125;28;20501;-84
2021/11/15 07:37:18;;;;;;;11.65;8.27;;;;;;;;;;5102258;28;20417;-83
2021/11/15 07:39:45;;;;;;;10.15;7.88;;;;;;;;;;5102619;28;20908;-84
2021/11/15 07:42:14;;;;;;;9.13;7.53;;;;;;;;;;5102736;28;20816;-84
2021/11/15 07:44:42;;;;;;;10.45;7.75;;;;;;;;;;5102228;28;20400;-84
2021/11/15 07:47:10;;;;;;;10.63;7.38;;;;;;;;;;5105727;28;20407;-84
2021/11/15 07:49:37;;;;;;;9.07;6.88;;;;;;;;;;5121761;28;20415;-84
2021/11/15 07:52:05;;;;;;;9.88;6.97;;;;;;;;;;5131384;28;20395;-84
2021/11/15 07:54:32;;;;;;;9.23;7.25;;;;;;;;;;5123810;28;20401;-83
2021/11/15 07:56:59;;;;;;;10.40;7.20;;;;;;;;;;5121150;28;20386;-84
2021/11/15 07:59:26;;;;;;;8.73;6.72;;;;;;;;;;5129364;28;20408;-84
2021/11/15 08:01:53;;;;;;;8.57;7.03;;;;;;;;;;5128827;28;20398;-84
2021/11/15 08:04:21;;;;;;;11.65;7.15;;;;;;;;;;5133043;28;20416;-84
2021/11/15 08:06:48;;;;;;;10.77;7.22;;;;;;;;;;5127596;28;20395;-85
2021/11/15 08:09:15;;;;;;;9.50;6.90;;;;;;;;;;5117745;28;20414;-84
2021/11/15 08:11:45;;;;;;;9.48;6.70;;;;;;;;;;5108289;28;20403;-83
2021/11/15 08:14:13;;;;;;;11.77;7.20;;;;;;;;;;5100577;28;20395;-84
2021/11/15 08:16:40;;;;;;;10.00;7.13;;;;;;;;;;5100306;28;20405;-84
2021/11/15 08:19:06;;;;;;;10.05;6.95;;;;;;;;;;5104035;28;20413;-84
2021/11/15 08:21:36;;;;;;;9.85;7.28;;;;;;;;;;5104884;28;20391;-84
2021/11/15 08:24:25;;;;;;;11.05;7.90;;;;;;;;;;5096755;28;20402;-84
2021/11/15 08:26:57;;;;;;;12.23;8.18;;;;;;;;;;5100600;28;20460;-84
2021/11/15 08:29:26;;;;;;;11.48;8.07;;;;;;;;;;5109798;27;20902;-84
2021/11/15 08:31:56;;;;;;;11.80;7.93;;;;;;;;;;5107918;28;20890;-84
2021/11/15 08:34:23;;;;;;;11.00;7.70;;;;;;;;;;5108596;27;20397;-84
2021/11/15 08:36:51;;;;;;;12.20;8.38;;;;;;;;;;5107728;28;20405;-84
2021/11/15 08:39:20;;;;;;;11.43;8.32;;;;;;;;;;5108927;28;20401;-84
2021/11/15 08:41:51;;;;;;;11.82;8.40;;;;;;;;;;5107001;28;20475;-84
2021/11/15 08:44:19;;;;;;;13.32;8.27;;;;;;;;;;5109649;28;20877;-84
2021/11/15 08:46:48;;;;;;;11.05;8.52;;;;;;;;;;5123516;27;20811;-85
2021/11/15 08:49:18;;;;;;;12.57;8.88;;;;;;;;;;5120658;28;20444;-84
2021/11/15 08:51:46;;;;;;;10.93;8.20;;;;;;;;;;5107490;28;20386;-84
2021/11/15 08:54:16;;;;;;;12.80;8.73;;;;;;;;;;5107273;28;20403;-85
2021/11/15 08:56:44;;;;;;;11.33;8.80;;;;;;;;;;5105914;28;20794;-85
2021/11/15 08:59:12;;;;;;;12.40;8.55;;;;;;;;;;5107547;27;20402;-85
2021/11/15 09:01:40;;;;;;;11.05;8.50;;;;;;;;;;5105069;28;20533;-85
2021/11/15 09:04:08;;;;;;;11.35;8.68;;;;;;;;;;5103883;28;20446;-84
2021/11/15 09:06:36;;;;;;;14.98;9.50;;;;;;;;;;5105639;28;20479;-85
2021/11/15 09:09:04;;;;;;;13.70;8.98;;;;;;;;;;5104018;28;20426;-83
2021/11/15 09:11:33;;;;;;;11.43;8.75;;;;;;;;;;5103907;28;20406;-84
2021/11/15 09:14:00;;;;;;;12.30;9.27;;;;;;;;;;5102974;27;21231;-83
2021/11/15 09:16:27;;;;;;;12.43;9.35;;;;;;;;;;5099856;28;20400;-85
2021/11/15 09:18:54;;;;;;;15.17;9.70;;;;;;;;;;5101030;28;20431;-84
2021/11/15 09:21:21;;;;;;;14.13;9.75;;;;;;;;;;5102479;28;20411;-85
2021/11/15 09:23:49;;;;;;;13.10;9.57;;;;;;;;;;5098220;28;20427;-84
2021/11/15 09:26:18;;;;;;;14.30;9.85;;;;;;;;;;5099134;28;20402;-86
2021/11/15 09:28:48;;;;;;;14.60;10.50;;;;;;;;;;5100570;28;20899;-85
2021/11/15 09:31:15;;;;;;;15.25;11.25;;;;;;;;;;5100379;28;20461;-85
2021/11/15 09:33:42;;;;;;;14.77;10.38;;;;;;;;;;5101656;28;20421;-84
2021/11/15 09:36:09;;;;;;;14.38;10.10;;;;;;;;;;5102134;28;20457;-84
2021/11/15 09:38:36;;;;;;;14.13;11.00;;;;;;;;;;5103991;28;20405;-85
2021/11/15 09:41:07;;;;;;;17.02;11.52;;;;;;;;;;5098206;27;20516;-85
2021/11/15 09:43:36;;;;;;;15.85;11.35;;;;;;;;;;5101165;28;21608;-85
2021/11/15 09:46:08;;;;;;;16.50;11.00;;;;;;;;;;5103893;28;20409;-84
2021/11/15 09:48:38;;;;;;;18.02;11.90;;;;;;;;;;5100841;28;20417;-85
2021/11/15 09:51:07;;;;;;;17.45;11.77;;;;;;;;;;5101324;28;20903;-85
2021/11/15 09:53:34;;;;;;;17.27;11.88;;;;;;;;;;5102017;28;20398;-85
2021/11/15 09:56:02;;;;;;;16.27;11.85;;;;;;;;;;5101700;28;20878;-85
2021/11/15 09:58:30;;;;;;;16.23;11.80;;;;;;;;;;5101383;28;20406;-85
2021/11/15 10:00:57;;;;;;;17.60;12.48;;;;;;;;;;5101554;28;20753;-86
2021/11/15 10:03:26;;;;;;;17.30;12.38;;;;;;;;;;5101602;28;20801;-83
2021/11/15 10:05:54;;;;;;;17.57;12.10;;;;;;;;;;5101821;28;20410;-85
2021/11/15 10:08:21;;;;;;;15.80;11.52;;;;;;;;;;5101806;28;20404;-85
2021/11/15 10:10:56;;;;;;;15.80;12.13;;;;;;;;;;5101801;28;20833;-85
2021/11/15 10:13:26;;;;;;;16.63;12.15;;;;;;;;;;5103152;28;20444;-85
2021/11/15 10:16:07;;;;;;;16.40;12.60;;;;;;;;;;5100862;28;20391;-85
2021/11/15 10:18:39;;;;;;;19.25;12.70;;;;;;;;;;5098469;28;20457;-85
2021/11/15 10:21:09;;;;;;;17.25;12.30;;;;;;;;;;5101025;28;20905;-84
2021/11/15 10:23:40;;;;;;;16.73;12.35;;;;;;;;;;5097464;28;20400;-85
2021/11/15 10:26:15;;;;;;;15.37;12.37;;;;;;;;;;5098160;28;20398;-85
2021/11/15 10:28:43;;;;;;;20.33;13.05;;;;;;;;;;5100554;28;20437;-85
2021/11/15 10:31:45;;;;;;;17.83;13.38;;;;;;;;;;5099512;28;20400;-85
2021/11/15 10:34:19;;;;;;;18.60;13.02;;;;;;;;;;5099635;28;20400;-85
2021/11/15 10:36:55;;;;;;;19.50;13.05;;;;;;;;;;5105446;28;20422;-85
2021/11/15 10:39:25;;;;;;;20.35;13.35;;;;;;;;;;5106377;28;20747;-85
2021/11/15 10:42:13;;;;;;;18.48;13.02;;;;;;;;;;5104148;28;20406;-85
2021/11/15 10:44:48;;;;;;;18.15;13.43;;;;;;;;;;5105624;28;20396;-85
2021/11/15 10:47:16;;;;;;;18.63;13.18;;;;;;;;;;5105404;28;20399;-85
2021/11/15 10:49:47;;;;;;;17.95;13.43;;;;;;;;;;5108980;28;20414;-85
2021/11/15 10:52:15;;;;;;;18.35;13.70;;;;;;;;;;5105134;28;20867;-85
2021/11/15 10:54:52;;;;;;;18.60;13.60;;;;;;;;;;5101066;28;20400;-85
2021/11/15 10:57:28;;;;;;;19.02;13.27;;;;;;;;;;5109599;28;20413;-85
2021/11/15 11:00:25;;;;;;;20.73;13.93;;;;;;;;;;5100954;28;20390;-85
2021/11/15 11:02:54;;;;;;;21.58;14.15;;;;;;;;;;5101921;28;20758;-84
2021/11/15 11:05:24;;;;;;;17.93;13.27;;;;;;;;;;5105161;28;20409;-84
2021/11/15 11:08:05;;;;;;;17.90;13.75;;;;;;;;;;5101807;28;20882;-85
2021/11/15 11:10:39;;;;;;;19.55;14.35;;;;;;;;;;5101368;28;20422;-85
2021/11/15 11:13:06;;;;;;;18.77;14.83;;;;;;;;;;5102063;28;21307;-85
2021/11/15 11:15:36;;;;;;;21.45;14.35;;;;;;;;;;5109431;27;20390;-83
2021/11/15 11:18:10;;;;;;;18.90;14.05;;;;;;;;;;5101822;28;20434;-85
2021/11/15 11:26:56;;;;;;;20.45;15.05;;;;;;;;;;5103505;28;20822;-85
2021/11/15 11:29:26;;;;;;;19.63;14.68;;;;;;;;;;5107037;27;20427;-85
2021/11/15 11:31:55;;;;;;;21.50;15.20;;;;;;;;;;5103872;28;20411;-84
2021/11/15 11:34:23;;;;;;;20.48;14.68;;;;;;;;;;5107505;28;20402;-85
2021/11/15 11:36:51;;;;;;;23.10;14.95;;;;;;;;;;5103838;28;20406;-85
2021/11/15 11:39:21;;;;;;;18.90;14.10;;;;;;;;;;5105232;28;20402;-85
2021/11/15 11:41:54;;;;;;;19.38;15.35;;;;;;;;;;5102578;28;20417;-85
2021/11/15 11:44:24;;;;;;;19.57;14.53;;;;;;;;;;5102044;28;20398;-85
2021/11/15 11:46:51;;;;;;;19.60;14.30;;;;;;;;;;5102682;28;20549;-84
2021/11/15 11:49:23;;;;;;;20.00;14.67;;;;;;;;;;5103442;27;20418;-84
2021/11/15 11:51:56;;;;;;;19.97;14.90;;;;;;;;;;5104497;28;20630;-84
2021/11/15 11:54:27;;;;;;;19.42;15.00;;;;;;;;;;5101566;28;20408;-85
2021/11/15 11:57:04;;;;;;;18.67;14.70;;;;;;;;;;5103328;28;20441;-85
2021/11/15 11:59:32;;;;;;;19.92;15.10;;;;;;;;;;5102945;28;20428;-84
2021/11/15 12:02:03;;;;;;;21.38;15.48;;;;;;;;;;5099776;28;20406;-85
2021/11/15 12:04:31;;;;;;;20.70;15.20;;;;;;;;;;5106993;28;20562;-85
2021/11/15 12:07:00;;;;;;;20.60;15.30;;;;;;;;;;5099257;28;20403;-83
2021/11/15 12:09:45;;;;;;;20.17;15.43;;;;;;;;;;5116150;27;20522;-84
2021/11/15 12:12:12;;;;;;;22.20;15.98;;;;;;;;;;5113281;27;20400;-84
2021/11/15 12:14:40;;;;;;;19.50;14.20;;;;;;;;;;5116052;27;20397;-83
2021/11/15 12:17:10;;;;;;;18.67;14.75;;;;;;;;;;5115602;27;20411;-83
2021/11/15 12:20:04;;;;;;;20.15;14.98;;;;;;;;;;5111897;27;20424;-83
2021/11/15 12:22:54;;;;;;;19.50;14.68;;;;;;;;;;5112008;27;20389;-85
2021/11/15 12:25:22;;;;;;;19.80;14.15;;;;;;;;;;5123637;27;20398;-85
2021/11/15 12:27:51;;;;;;;20.25;13.95;;;;;;;;;;5136541;27;20405;-85
2021/11/15 12:30:21;;;;;;;18.23;13.40;;;;;;;;;;5127440;27;20417;-85
2021/11/15 12:33:08;;;;;;;18.88;14.57;;;;;;;;;;5110866;27;20414;-85
2021/11/15 12:35:57;;;;;;;18.30;13.50;;;;;;;;;;5114805;27;20422;-85
2021/11/15 12:38:35;;;;;;;18.60;13.90;;;;;;;;;;5104552;27;20398;-86
2021/11/15 12:41:04;;;;;;;21.40;14.80;;;;;;;;;;5098976;28;20413;-85
2021/11/15 12:43:31;;;;;;;17.80;13.82;;;;;;;;;;5099553;27;20410;-85
2021/11/15 12:46:10;;;;;;;17.37;13.80;;;;;;;;;;5107864;27;20558;-85
2021/11/15 12:48:40;;;;;;;17.95;13.43;;;;;;;;;;5111230;27;20401;-85
2021/11/15 12:51:14;;;;;;;18.70;13.27;;;;;;;;;;5110853;27;20417;-86
2021/11/15 12:53:48;;;;;;;21.40;14.93;;;;;;;;;;5113929;27;20393;-85
2021/11/15 12:56:21;;;;;;;19.30;13.80;;;;;;;;;;5116247;27;20420;-85
2021/11/15 12:58:51;;;;;;;18.52;14.35;;;;;;;;;;5115930;27;20402;-85
2021/11/15 13:01:21;;;;;;;20.10;14.77;;;;;;;;;;5114320;27;20424;-85
2021/11/15 13:03:48;;;;;;;20.40;14.35;;;;;;;;;;5109520;27;20480;-84
2021/11/15 13:06:16;;;;;;;20.48;14.40;;;;;;;;;;5106665;27;20476;-84
2021/11/15 13:08:44;;;;;;;16.87;13.07;;;;;;;;;;5110070;27;20495;-84
2021/11/15 13:11:13;;;;;;;16.08;12.23;;;;;;;;;;5107874;27;20412;-84
2021/11/15 13:13:41;;;;;;;16.03;12.50;;;;;;;;;;5115893;27;20892;-84
2021/11/15 13:16:08;;;;;;;17.38;13.23;;;;;;;;;;5112386;27;20446;-84
2021/11/15 13:18:35;;;;;;;16.65;12.57;;;;;;;;;;5117317;27;20397;-83
2021/11/15 13:21:03;;;;;;;16.98;12.80;;;;;;;;;;5110655;27;20398;-84
2021/11/15 13:23:30;;;;;;;17.38;12.77;;;;;;;;;;5109785;27;21297;-84
2021/11/15 13:25:58;;;;;;;17.42;12.85;;;;;;;;;;5113611;27;20429;-84
2021/11/15 13:28:28;;;;;;;18.23;13.13;;;;;;;;;;5115000;27;21013;-84
2021/11/15 13:30:55;;;;;;;16.63;12.50;;;;;;;;;;5116482;27;20932;-84
2021/11/15 13:33:22;;;;;;;16.38;12.73;;;;;;;;;;5115274;27;20409;-84
2021/11/15 13:35:50;;;;;;;16.17;12.73;;;;;;;;;;5113255;27;20403;-83
2021/11/15 13:38:16;;;;;;;16.77;13.17;;;;;;;;;;5114698;27;20743;-84
2021/11/15 13:40:45;;;;;;;16.40;12.57;;;;;;;;;;5116945;27;20384;-84
2021/11/15 13:43:14;;;;;;;18.70;13.45;;;;;;;;;;5110504;28;20398;-84
2021/11/15 13:45:42;;;;;;;16.48;13.00;;;;;;;;;;5115503;27;20408;-84
2021/11/15 13:48:09;;;;;;;18.35;12.73;;;;;;;;;;5114469;28;20403;-85
2021/11/15 13:50:36;;;;;;;15.82;12.32;;;;;;;;;;5106846;28;20430;-85
2021/11/15 13:53:05;;;;;;;16.87;13.60;;;;;;;;;;5088936;28;20436;-84
2021/11/15 13:55:32;;;;;;;16.87;13.30;;;;;;;;;;5108362;28;20402;-84
2021/11/15 13:57:59;;;;;;;18.92;13.90;;;;;;;;;;5108637;28;20426;-84
2021/11/15 14:00:26;;;;;;;18.60;14.05;;;;;;;;;;5106304;28;20426;-85
2021/11/15 14:02:54;;;;;;;17.90;13.73;;;;;;;;;;5105931;28;20817;-85
2021/11/15 14:05:21;;;;;;;17.83;13.90;;;;;;;;;;5113533;28;20409;-85
2021/11/15 14:07:49;;;;;;;17.95;14.43;;;;;;;;;;5108562;28;20533;-84
2021/11/15 14:10:16;;;;;;;17.67;13.40;;;;;;;;;;5111594;27;20964;-85
2021/11/15 14:12:43;;;;;;;18.25;14.18;;;;;;;;;;5109614;27;20457;-85
2021/11/15 14:15:11;;;;;;;18.88;14.48;;;;;;;;;;5112050;27;20401;-85
2021/11/15 14:17:38;;;;;;;17.58;14.15;;;;;;;;;;5107779;27;20896;-84
2021/11/15 14:20:07;;;;;;;20.88;14.88;;;;;;;;;;5107687;27;20920;-85
2021/11/15 14:22:34;;;;;;;18.40;14.45;;;;;;;;;;5113000;27;20395;-84
2021/11/15 14:25:01;;;;;;;18.88;14.57;;;;;;;;;;5106737;27;20404;-79
2021/11/15 14:27:28;;;;;;;19.85;15.40;;;;;;;;;;5111538;27;20394;-85
2021/11/15 14:29:54;;;;;;;20.90;15.20;;;;;;;;;;5116454;27;20408;-85
2021/11/15 14:32:21;;;;;;;20.10;15.25;;;;;;;;;;5119857;27;20611;-86
2021/11/15 14:34:48;;;;;;;19.15;14.90;;;;;;;;;;5110927;27;20946;-85
2021/11/15 14:37:19;;;;;;;19.27;15.25;;;;;;;;;;5117121;27;20406;-85
2021/11/15 14:39:47;;;;;;;21.42;14.95;;;;;;;;;;5120537;27;20911;-85
2021/11/15 14:42:14;;;;;;;18.70;14.30;;;;;;;;;;5118646;27;20412;-86
2021/11/15 14:44:42;;;;;;;20.63;14.85;;;;;;;;;;5117716;27;20395;-85
2021/11/15 14:47:10;;;;;;;19.30;14.32;;;;;;;;;;5109083;27;20866;-85